Time;durP1;ratioP1;P1;durP2;ratioP2;P2;SDS_P1;SDS_P2;PMS_P1;PMS_P2;Temp;Humidity;BMP_temperature;BMP_pressure;BME280_temperature;BME280_humidity;BME280_pressure;Samples;Min_cycle;Max_cycle;Signal;HPM_P1;HPM_P2
2021/06/16 00:00:13;;;;;;;;;;;;;;;26.23;50.32;100144.27;1709447;84;20688;-76
2021/06/16 00:02:41;;;;;;;;;;;;;;;26.20;50.26;100142.61;1709408;84;20424;-76
2021/06/16 00:05:10;;;;;;;;;;;;;;;26.17;50.20;100145.36;1683649;84;20171;-76
2021/06/16 00:07:36;;;;;;;;;;;;;;;26.16;50.06;100146.46;1709223;84;20159;-76
2021/06/16 00:10:04;;;;;;;;;;;;;;;26.12;49.86;100149.46;1709418;84;20141;-76
2021/06/16 00:12:30;;;;;;;;;;;;;;;26.08;49.76;100141.48;1709714;84;20151;-76
2021/06/16 00:14:56;;;;;;;;;;;;;;;26.05;49.60;100148.87;1709145;84;20150;-77
2021/06/16 00:17:23;;;;;;;;;;;;;;;26.03;49.51;100157.94;1709159;84;20218;-76
2021/06/16 00:19:48;;;;;;;;;;;;;;;26.00;49.46;100163.95;1709449;84;20157;-76
2021/06/16 00:22:15;;;;;;;;;;;;;;;25.98;49.42;100172.98;1709271;84;20155;-76
2021/06/16 00:24:41;;;;;;;;;;;;;;;25.98;49.44;100174.34;1709235;84;20456;-76
2021/06/16 00:27:08;;;;;;;;;;;;;;;25.94;49.53;100167.77;1709158;84;20186;-76
2021/06/16 00:29:34;;;;;;;;;;;;;;;25.92;49.58;100165.82;1709386;84;20143;-76
2021/06/16 00:32:00;;;;;;;;;;;;;;;25.89;49.55;100174.58;1709492;84;20201;-76
2021/06/16 00:34:26;;;;;;;;;;;;;;;25.83;49.46;100168.80;1709320;84;20157;-76
2021/06/16 00:36:57;;;;;;;;;;;;;;;25.82;49.62;100164.41;1709327;84;20432;-76
2021/06/16 00:39:23;;;;;;;;;;;;;;;25.80;49.75;100153.70;1709149;84;20173;-76
2021/06/16 00:41:49;;;;;;;;;;;;;;;25.82;50.02;100153.43;1709518;84;20268;-76
2021/06/16 00:44:16;;;;;;;;;;;;;;;25.82;50.09;100154.80;1709223;84;20436;-76
2021/06/16 00:46:42;;;;;;;;;;;;;;;25.80;50.08;100142.19;1709546;84;20177;-76
2021/06/16 00:49:08;;;;;;;;;;;;;;;25.77;50.25;100128.98;1709391;84;20471;-77
2021/06/16 00:51:34;;;;;;;;;;;;;;;25.76;50.45;100119.11;1709631;83;20178;-76
2021/06/16 00:54:00;;;;;;;;;;;;;;;25.77;50.61;100093.88;1711968;83;20774;-76
2021/06/16 00:56:26;;;;;;;;;;;;;;;25.76;50.79;100084.82;1712647;83;20181;-76
2021/06/16 00:58:52;;;;;;;;;;;;;;;25.77;50.95;100061.77;1708256;84;20189;-76
2021/06/16 01:01:24;;;;;;;;;;;;;;;25.78;51.00;100044.21;1709029;84;20256;-76
2021/06/16 01:04:10;;;;;;;;;;;;;;;25.79;51.06;100041.73;1709156;84;20155;-76
2021/06/16 01:06:43;;;;;;;;;;;;;;;25.80;51.06;100027.50;1708112;84;20499;-76
2021/06/16 01:09:33;;;;;;;;;;;;;;;25.82;51.12;100018.98;1709359;84;20134;-76
2021/06/16 01:12:14;;;;;;;;;;;;;;;25.80;51.16;100008.30;1709543;84;20420;-76
2021/06/16 01:15:11;;;;;;;;;;;;;;;25.83;51.21;100004.98;1709235;84;20146;-76
2021/06/16 01:17:54;;;;;;;;;;;;;;;25.85;51.16;100014.34;1709828;84;20182;-76
2021/06/16 01:20:24;;;;;;;;;;;;;;;25.85;51.15;100021.20;1709411;84;20138;-76
2021/06/16 01:23:00;;;;;;;;;;;;;;;25.41;52.01;100032.50;1709799;84;20139;-76
2021/06/16 01:25:47;;;;;;;;;;;;;;;25.33;52.19;100035.74;1709293;84;20428;-76
2021/06/16 01:28:14;;;;;;;;;;;;;;;25.29;52.34;100030.78;1709824;84;20138;-76
2021/06/16 01:30:41;;;;;;;;;;;;;;;25.28;52.53;100026.40;1709332;84;20201;-76
2021/06/16 01:33:07;;;;;;;;;;;;;;;25.23;52.72;100031.03;1709599;83;20179;-76
2021/06/16 01:35:33;;;;;;;;;;;;;;;25.23;52.70;100029.11;1709058;84;20166;-75
2021/06/16 01:38:00;;;;;;;;;;;;;;;25.29;52.71;100038.19;1709518;84;20215;-76
2021/06/16 01:40:26;;;;;;;;;;;;;;;25.24;52.78;100026.64;1709688;84;20157;-76
2021/06/16 01:42:53;;;;;;;;;;;;;;;25.22;52.75;100024.73;1709612;84;20143;-76
2021/06/16 01:45:20;;;;;;;;;;;;;;;25.22;52.90;100025.28;1709204;84;20143;-76
2021/06/16 01:47:46;;;;;;;;;;;;;;;25.18;52.97;100024.98;1709697;84;20159;-76
2021/06/16 01:50:12;;;;;;;;;;;;;;;25.21;52.85;100014.86;1709474;83;20146;-76
2021/06/16 01:52:38;;;;;;;;;;;;;;;25.15;52.97;100018.64;1709420;84;20171;-76
2021/06/16 01:55:06;;;;;;;;;;;;;;;25.15;52.87;100013.16;1709230;84;20416;-76
2021/06/16 01:57:32;;;;;;;;;;;;;;;25.13;52.78;100008.50;1709353;84;20163;-75
2021/06/16 01:59:59;;;;;;;;;;;;;;;25.12;52.75;100010.97;1709438;84;20218;-76
2021/06/16 02:02:27;;;;;;;;;;;;;;;25.12;52.85;100013.72;1714443;82;20190;-76
2021/06/16 02:04:53;;;;;;;;;;;;;;;25.11;52.88;100023.00;1738168;82;20175;-76
2021/06/16 02:07:22;;;;;;;;;;;;;;;25.10;52.93;100032.87;1706881;84;20176;-76
2021/06/16 02:09:48;;;;;;;;;;;;;;;25.06;53.00;100033.36;1738862;82;20152;-75
2021/06/16 02:12:14;;;;;;;;;;;;;;;25.37;52.30;100034.95;1738787;82;20194;-76
2021/06/16 02:14:42;;;;;;;;;;;;;;;25.49;51.92;100045.71;1738808;82;20459;-75
2021/06/16 02:17:10;;;;;;;;;;;;;;;25.51;51.77;100044.34;1738787;82;20163;-75
2021/06/16 02:19:36;;;;;;;;;;;;;;;25.51;51.63;100040.77;1738799;82;20462;-75
2021/06/16 02:22:04;;;;;;;;;;;;;;;25.51;51.59;100043.52;1737859;82;20163;-75
2021/06/16 02:24:31;;;;;;;;;;;;;;;25.51;51.57;100046.26;1737666;82;20941;-76
2021/06/16 02:26:57;;;;;;;;;;;;;;;25.50;51.56;100044.06;1739696;82;20140;-76
2021/06/16 02:29:25;;;;;;;;;;;;;;;25.50;51.62;100050.09;1739318;82;20222;-76
2021/06/16 02:31:51;;;;;;;;;;;;;;;25.49;51.51;100055.31;1739516;82;20165;-75
2021/06/16 02:34:17;;;;;;;;;;;;;;;25.49;51.50;100048.45;1739211;82;20970;-75
2021/06/16 02:36:46;;;;;;;;;;;;;;;25.48;51.38;100055.86;1714575;82;20445;-75
2021/06/16 02:39:25;;;;;;;;;;;;;;;25.50;51.28;100052.84;1739302;82;20133;-76
2021/06/16 02:41:51;;;;;;;;;;;;;;;25.51;51.32;100053.11;1739698;82;20136;-76
2021/06/16 02:44:18;;;;;;;;;;;;;;;25.51;51.38;100059.97;1739250;82;20187;-75
2021/06/16 02:46:46;;;;;;;;;;;;;;;25.52;51.35;100056.12;1739580;82;20166;-75
2021/06/16 02:49:13;;;;;;;;;;;;;;;25.54;51.39;100066.30;1739104;82;20152;-75
2021/06/16 02:51:39;;;;;;;;;;;;;;;25.59;51.28;100071.81;1739631;82;20215;-77
2021/06/16 02:54:09;;;;;;;;;;;;;;;25.63;51.29;100083.08;1739262;82;20142;-76
2021/06/16 02:56:38;;;;;;;;;;;;;;;25.59;51.49;100081.41;1739256;82;20433;-76
2021/06/16 02:59:06;;;;;;;;;;;;;;;25.18;52.55;100085.83;1739308;82;20172;-76
2021/06/16 03:01:35;;;;;;;;;;;;;;;25.54;51.88;100078.64;1739203;82;20160;-76
2021/06/16 03:04:01;;;;;;;;;;;;;;;25.63;51.51;100089.39;1735603;82;20794;-76
2021/06/16 03:06:27;;;;;;;;;;;;;;;25.66;51.24;100103.95;1708372;84;20165;-76
2021/06/16 03:08:55;;;;;;;;;;;;;;;25.68;51.12;100099.01;1731012;83;20108;-76
2021/06/16 03:11:21;;;;;;;;;;;;;;;25.70;51.00;100103.67;1707737;84;20212;-75
2021/06/16 03:13:47;;;;;;;;;;;;;;;25.72;50.97;100097.39;1730039;83;20244;-76
2021/06/16 03:16:14;;;;;;;;;;;;;;;25.73;50.96;100093.55;1730872;83;20310;-75
2021/06/16 03:18:42;;;;;;;;;;;;;;;25.77;51.04;100101.55;1708030;84;20392;-75
2021/06/16 03:21:10;;;;;;;;;;;;;;;25.80;50.90;100107.89;1730753;83;20176;-75
2021/06/16 03:23:36;;;;;;;;;;;;;;;25.83;50.72;100111.17;1731565;83;20161;-76
2021/06/16 03:26:04;;;;;;;;;;;;;;;25.83;50.72;100107.06;1730816;83;20192;-75
2021/06/16 03:28:31;;;;;;;;;;;;;;;25.83;50.79;100106.51;1730721;83;20188;-75
2021/06/16 03:30:57;;;;;;;;;;;;;;;25.85;50.83;100110.38;1730162;83;20176;-76
2021/06/16 03:33:23;;;;;;;;;;;;;;;25.87;50.89;100107.63;1707622;84;20188;-75
2021/06/16 03:35:50;;;;;;;;;;;;;;;25.89;50.73;100115.58;1730594;83;20435;-75
2021/06/16 03:38:16;;;;;;;;;;;;;;;25.93;50.90;100122.19;1731448;83;20177;-74
2021/06/16 03:40:42;;;;;;;;;;;;;;;25.94;50.65;100123.86;1729723;83;20172;-75
2021/06/16 03:43:09;;;;;;;;;;;;;;;25.95;50.44;100133.19;1730894;83;20121;-75
2021/06/16 03:45:34;;;;;;;;;;;;;;;25.60;50.95;100131.59;1708159;84;20583;-76
2021/06/16 03:48:02;;;;;;;;;;;;;;;25.46;51.14;100140.29;1706176;83;20248;-76
2021/06/16 03:50:28;;;;;;;;;;;;;;;25.79;50.22;100139.69;1729610;83;20444;-76
2021/06/16 03:52:54;;;;;;;;;;;;;;;25.88;49.98;100156.47;1715706;83;20168;-76
2021/06/16 03:55:20;;;;;;;;;;;;;;;25.86;49.82;100151.26;1724685;82;20177;-76
2021/06/16 03:57:46;;;;;;;;;;;;;;;25.84;49.83;100157.54;1725620;83;20204;-76
2021/06/16 04:00:13;;;;;;;;;;;;;;;25.83;49.92;100163.30;1713960;83;20151;-77
2021/06/16 04:02:40;;;;;;;;;;;;;;;25.83;49.97;100159.19;1726309;83;20214;-77
2021/06/16 04:05:07;;;;;;;;;;;;;;;25.86;49.84;100165.53;1727608;82;20191;-77
2021/06/16 04:07:34;;;;;;;;;;;;;;;25.85;49.66;100158.39;1678578;85;20132;-75
2021/06/16 04:10:00;;;;;;;;;;;;;;;25.86;49.82;100158.67;1692287;84;20205;-76
2021/06/16 04:12:28;;;;;;;;;;;;;;;25.87;49.78;100158.94;1680855;84;20180;-76
2021/06/16 04:14:54;;;;;;;;;;;;;;;25.86;49.77;100162.23;1680633;84;20173;-76
2021/06/16 04:17:20;;;;;;;;;;;;;;;25.85;49.86;100166.08;1713364;83;20168;-76
2021/06/16 04:19:47;;;;;;;;;;;;;;;25.86;50.08;100171.02;1717948;82;20212;-76
2021/06/16 04:22:14;;;;;;;;;;;;;;;25.86;50.12;100168.27;1717724;82;20190;-75
2021/06/16 04:24:40;;;;;;;;;;;;;;;25.89;49.99;100170.46;1732380;82;20168;-76
2021/06/16 04:27:06;;;;;;;;;;;;;;;25.90;49.94;100168.84;1723110;83;20198;-76
2021/06/16 04:29:32;;;;;;;;;;;;;;;25.92;49.78;100171.31;1700927;83;20461;-75
2021/06/16 04:31:58;;;;;;;;;;;;;;;25.90;49.79;100173.51;1706094;84;20161;-76
2021/06/16 04:34:24;;;;;;;;;;;;;;;25.91;49.96;100182.02;1707344;84;20175;-76
2021/06/16 04:36:50;;;;;;;;;;;;;;;25.93;50.00;100183.93;1704821;84;20424;-76
2021/06/16 04:39:18;;;;;;;;;;;;;;;25.96;49.77;100202.63;1702362;84;20198;-77
2021/06/16 04:41:44;;;;;;;;;;;;;;;25.98;49.84;100196.30;1703985;84;20183;-77
2021/06/16 04:44:10;;;;;;;;;;;;;;;26.02;49.84;100197.42;1704168;84;20441;-76
2021/06/16 04:46:37;;;;;;;;;;;;;;;26.08;49.76;100192.27;1704509;82;20502;-77
2021/06/16 04:49:03;;;;;;;;;;;;;;;26.13;49.73;100195.03;1704977;84;20148;-76
2021/06/16 04:51:29;;;;;;;;;;;;;;;26.18;49.35;100206.58;1675427;83;20113;-76
2021/06/16 04:53:55;;;;;;;;;;;;;;;26.18;49.15;100207.95;1703902;84;20126;-76
2021/06/16 04:56:21;;;;;;;;;;;;;;;26.19;48.93;100210.97;1705903;83;20159;-77
2021/06/16 04:58:47;;;;;;;;;;;;;;;26.18;49.00;100215.64;1704352;83;20577;-75
2021/06/16 05:01:13;;;;;;;;;;;;;;;26.17;49.13;100212.62;1707494;82;20149;-78
2021/06/16 05:03:39;;;;;;;;;;;;;;;26.17;49.16;100216.73;1703355;84;20145;-76
2021/06/16 05:06:05;;;;;;;;;;;;;;;26.20;49.07;100209.31;1702141;82;20225;-76
2021/06/16 05:08:31;;;;;;;;;;;;;;;26.26;49.03;100213.77;1702026;82;20264;-76
2021/06/16 05:10:57;;;;;;;;;;;;;;;26.28;48.86;100211.55;1700685;82;20114;-77
2021/06/16 05:13:23;;;;;;;;;;;;;;;26.29;48.68;100211.01;1700882;84;20216;-77
2021/06/16 05:15:50;;;;;;;;;;;;;;;26.29;48.65;100213.20;1704333;82;20142;-77
2021/06/16 05:18:17;;;;;;;;;;;;;;;26.29;48.53;100211.83;1705534;82;20130;-76
2021/06/16 05:20:44;;;;;;;;;;;;;;;26.28;48.59;100207.44;1702253;83;20247;-76
2021/06/16 05:23:10;;;;;;;;;;;;;;;26.27;48.73;100216.78;1698685;82;20477;-76
2021/06/16 05:25:39;;;;;;;;;;;;;;;26.23;48.82;100210.72;1699973;82;20226;-78
2021/06/16 05:28:05;;;;;;;;;;;;;;;26.20;48.84;100214.81;1702170;82;20179;-78
2021/06/16 05:30:31;;;;;;;;;;;;;;;26.20;49.16;100211.23;1700072;82;20138;-77
2021/06/16 05:32:57;;;;;;;;;;;;;;;26.20;49.21;100212.06;1669314;84;20543;-78
2021/06/16 05:35:23;;;;;;;;;;;;;;;26.16;49.40;100215.61;1722791;82;20181;-78
2021/06/16 05:37:49;;;;;;;;;;;;;;;26.14;49.53;100220.00;1719602;82;20136;-78
2021/06/16 05:40:16;;;;;;;;;;;;;;;26.14;49.63;100214.52;1716251;81;20199;-77
2021/06/16 05:42:42;;;;;;;;;;;;;;;26.16;49.79;100212.86;1715124;82;20162;-77
2021/06/16 05:45:09;;;;;;;;;;;;;;;26.20;49.79;100211.23;1712306;82;20204;-77
2021/06/16 05:47:35;;;;;;;;;;;;;;;26.23;49.62;100201.92;1703671;82;20194;-76
2021/06/16 05:50:01;;;;;;;;;;;;;;;26.30;49.96;100201.70;1708627;82;20185;-76
2021/06/16 05:52:27;;;;;;;;;;;;;;;26.38;50.17;100196.22;1714378;82;20210;-77
2021/06/16 05:54:53;;;;;;;;;;;;;;;26.45;50.07;100195.46;1738753;81;20996;-76
2021/06/16 05:57:19;;;;;;;;;;;;;;;26.48;49.78;100192.16;1732373;81;20152;-77
2021/06/16 05:59:44;;;;;;;;;;;;;;;26.50;49.72;100196.30;1731671;81;20198;-76
2021/06/16 06:02:10;;;;;;;;;;;;;;;26.54;49.71;100208.95;1731861;81;20178;-76
2021/06/16 06:04:36;;;;;;;;;;;;;;;26.56;49.53;100210.31;1707222;81;20158;-77
2021/06/16 06:07:03;;;;;;;;;;;;;;;26.55;49.38;100211.41;1735100;81;20185;-78
2021/06/16 06:09:29;;;;;;;;;;;;;;;26.59;49.52;100209.52;1736941;81;20148;-77
2021/06/16 06:11:55;;;;;;;;;;;;;;;26.62;49.48;100209.80;1737106;81;20219;-77
2021/06/16 06:14:21;;;;;;;;;;;;;;;26.67;49.53;100200.20;1739694;81;20214;-77
2021/06/16 06:16:47;;;;;;;;;;;;;;;26.74;49.43;100199.38;1737061;81;20215;-77
2021/06/16 06:19:13;;;;;;;;;;;;;;;26.78;49.01;100201.03;1712218;82;20177;-77
2021/06/16 06:21:39;;;;;;;;;;;;;;;26.77;49.00;100195.27;1733686;81;20540;-78
2021/06/16 06:24:06;;;;;;;;;;;;;;;26.78;49.11;100196.36;1737417;81;20213;-77
2021/06/16 06:26:33;;;;;;;;;;;;;;;26.83;49.02;100213.41;1734839;81;20677;-77
2021/06/16 06:28:59;;;;;;;;;;;;;;;26.90;48.60;100218.11;1722017;81;20176;-78
2021/06/16 06:31:27;;;;;;;;;;;;;;;26.95;48.81;100222.78;1723150;81;20219;-75
2021/06/16 06:33:53;;;;;;;;;;;;;;;27.01;48.58;100225.81;1721727;81;20185;-76
2021/06/16 06:36:28;;;;;;;;;;;;;;;27.05;48.51;100233.79;1734290;81;20180;-78
2021/06/16 06:38:58;;;;;;;;;;;;;;;27.10;48.48;100220.63;1717950;81;20654;-78
2021/06/16 06:41:26;;;;;;;;;;;;;;;27.14;48.44;100221.73;1731327;81;20160;-79
2021/06/16 06:43:53;;;;;;;;;;;;;;;27.17;48.38;100230.27;1712585;81;20263;-78
2021/06/16 06:46:22;;;;;;;;;;;;;;;27.19;48.08;100236.31;1712906;81;20176;-78
2021/06/16 06:48:50;;;;;;;;;;;;;;;27.20;48.01;100240.70;1712856;81;20748;-78
2021/06/16 06:51:16;;;;;;;;;;;;;;;27.16;48.27;100239.63;1713135;81;20224;-78
2021/06/16 06:53:42;;;;;;;;;;;;;;;27.20;48.38;100235.20;1714662;81;20257;-78
2021/06/16 06:56:08;;;;;;;;;;;;;;;27.17;48.31;100241.27;1701312;81;20189;-77
2021/06/16 06:58:36;;;;;;;;;;;;;;;27.23;48.35;100236.59;1743936;80;20137;-77
2021/06/16 07:01:02;;;;;;;;;;;;;;;27.27;48.41;100239.08;1753164;80;20736;-77
2021/06/16 07:03:28;;;;;;;;;;;;;;;26.99;49.20;100234.89;1757124;80;20183;-77
2021/06/16 07:05:54;;;;;;;;;;;;;;;27.28;48.83;100242.09;1757469;80;20149;-77
2021/06/16 07:08:20;;;;;;;;;;;;;;;27.36;48.62;100235.23;1757635;80;20168;-77
2021/06/16 07:10:46;;;;;;;;;;;;;;;27.40;48.74;100237.70;1738025;81;20249;-77
2021/06/16 07:13:12;;;;;;;;;;;;;;;27.47;48.69;100231.36;1762172;79;20221;-77
2021/06/16 07:15:41;;;;;;;;;;;;;;;27.55;48.74;100239.89;1763205;79;20258;-77
2021/06/16 07:18:08;;;;;;;;;;;;;;;27.63;48.37;100235.77;1745454;79;20627;-77
2021/06/16 07:20:34;;;;;;;;;;;;;;;27.71;48.29;100235.21;1741406;80;20186;-77
2021/06/16 07:23:05;;;;;;;;;;;;;;;27.79;48.48;100237.41;1744534;80;20151;-77
2021/06/16 07:25:31;;;;;;;;;;;;;;;27.85;48.44;100239.63;1741645;80;20163;-77
2021/06/16 07:27:57;;;;;;;;;;;;;;;27.67;49.05;100239.62;1745207;80;20179;-78
2021/06/16 07:30:23;;;;;;;;;;;;;;;27.77;48.98;100238.81;1761562;80;20193;-77
2021/06/16 07:32:49;;;;;;;;;;;;;;;28.00;48.34;100242.89;1763779;79;20186;-78
2021/06/16 07:35:15;;;;;;;;;;;;;;;28.07;48.15;100248.94;1757221;79;20228;-77
2021/06/16 07:37:41;;;;;;;;;;;;;;;28.13;47.85;100246.44;1756343;79;20204;-77
2021/06/16 07:40:08;;;;;;;;;;;;;;;28.19;47.70;100252.19;1763360;79;20175;-77
2021/06/16 07:42:36;;;;;;;;;;;;;;;28.27;47.51;100251.63;1768710;79;20157;-76
2021/06/16 07:45:03;;;;;;;;;;;;;;;28.36;47.58;100246.95;1741108;80;20202;-77
2021/06/16 07:47:31;;;;;;;;;;;;;;;28.41;47.58;100248.30;1769587;79;20172;-77
2021/06/16 07:49:58;;;;;;;;;;;;;;;28.45;47.19;100252.14;1746108;80;20145;-77
2021/06/16 07:52:24;;;;;;;;;;;;;;;28.45;47.22;100250.21;1763488;79;20184;-76
2021/06/16 07:54:51;;;;;;;;;;;;;;;28.45;47.09;100253.52;1767133;79;20181;-77
2021/06/16 07:57:17;;;;;;;;;;;;;;;28.42;46.96;100257.65;1765285;79;20193;-77
2021/06/16 07:59:43;;;;;;;;;;;;;;;28.39;47.13;100260.14;1761255;79;20247;-76
2021/06/16 08:02:10;;;;;;;;;;;;;;;28.38;47.18;100262.62;1764109;79;20195;-76
2021/06/16 08:04:41;;;;;;;;;;;;;;;28.37;47.35;100260.42;1756052;80;20152;-77
2021/06/16 08:07:10;;;;;;;;;;;;;;;28.36;47.56;100257.41;1769364;79;20180;-77
2021/06/16 08:09:34;;;;;;;;;;;;;;;28.35;47.62;100260.45;1755945;80;20189;-77
2021/06/16 08:12:03;;;;;;;;;;;;;;;28.32;47.85;100261.80;1754105;80;20179;-78
2021/06/16 08:14:30;;;;;;;;;;;;;;;28.30;47.85;100258.52;1755793;80;20154;-77
2021/06/16 08:16:58;;;;;;;;;;;;;;;28.26;47.98;100255.48;1754294;80;20172;-78
2021/06/16 08:19:24;;;;;;;;;;;;;;;28.23;48.06;100258.80;1755835;80;20439;-76
2021/06/16 08:21:50;;;;;;;;;;;;;;;28.19;48.32;100268.72;1768987;79;20312;-77
2021/06/16 08:24:16;;;;;;;;;;;;;;;28.16;48.33;100258.80;1754302;80;20573;-78
2021/06/16 08:26:42;;;;;;;;;;;;;;;28.13;48.39;100254.70;1767958;79;20239;-79
2021/06/16 08:29:08;;;;;;;;;;;;;;;28.11;48.58;100256.06;1758357;79;20174;-78
2021/06/16 08:31:34;;;;;;;;;;;;;;;28.13;48.93;100255.25;1760420;79;20137;-78
2021/06/16 08:34:00;;;;;;;;;;;;;;;28.18;48.82;100254.68;1766506;79;20238;-78
2021/06/16 08:36:26;;;;;;;;;;;;;;;28.26;48.87;100254.11;1761826;79;20165;-77
2021/06/16 08:38:52;;;;;;;;;;;;;;;28.32;48.51;100257.11;1762792;79;20171;-78
2021/06/16 08:41:24;;;;;;;;;;;;;;;28.37;47.33;100264.56;1760817;80;20192;-77
2021/06/16 08:44:40;;;;;;;;;;;;;;;28.41;46.70;100255.19;1763479;79;20217;-77
2021/06/16 08:46:38;;;;;;;;;;;;;;;28.44;46.04;100254.08;1733486;80;20660;-77
2021/06/16 08:49:07;;;;;;;;;;;;;;;28.39;45.89;100269.25;1759657;79;20201;-77
2021/06/16 08:51:34;;;;;;;;;;;;;;;28.41;45.88;100276.67;1748733;79;20185;-77
2021/06/16 08:54:00;;;;;;;;;;;;;;;28.42;45.48;100283.82;1760990;79;20223;-78
2021/06/16 08:56:27;;;;;;;;;;;;;;;28.39;45.59;100275.28;1764331;79;20214;-77
2021/06/16 08:58:53;;;;;;;;;;;;;;;28.38;45.27;100277.78;1767555;79;20149;-77
2021/06/16 09:01:21;;;;;;;;;;;;;;;28.36;45.05;100280.83;1765056;79;20168;-78
2021/06/16 09:03:47;;;;;;;;;;;;;;;28.37;45.22;100274.76;1767759;79;20186;-78
2021/06/16 09:06:16;;;;;;;;;;;;;;;28.40;45.43;100276.41;1767547;79;20160;-77
2021/06/16 09:08:53;;;;;;;;;;;;;;;28.47;45.73;100284.36;1747719;79;20184;-78
2021/06/16 09:11:20;;;;;;;;;;;;;;;28.57;45.29;100271.94;1732812;81;20169;-78
2021/06/16 09:13:46;;;;;;;;;;;;;;;28.67;44.78;100283.47;1733585;81;20166;-79
2021/06/16 09:16:34;;;;;;;;;;;;;;;28.78;44.48;100289.19;1734186;81;20218;-78
2021/06/16 09:19:03;;;;;;;;;;;;;;;28.83;44.41;100303.77;1735926;81;20695;-78
2021/06/16 09:21:35;;;;;;;;;;;;;;;28.86;44.04;100301.56;1713542;81;20182;-77
2021/06/16 09:24:02;;;;;;;;;;;;;;;28.93;44.19;100307.58;1738821;81;20403;-79
2021/06/16 09:26:33;;;;;;;;;;;;;;;28.97;44.21;100309.52;1736940;81;20208;-77
2021/06/16 09:29:02;;;;;;;;;;;;;;;29.03;44.11;100315.29;1751692;80;20187;-77
2021/06/16 09:31:39;;;;;;;;;;;;;;;29.08;44.24;100313.06;1753204;80;20148;-77
2021/06/16 09:34:11;;;;;;;;;;;;;;;29.12;44.48;100319.66;1754057;80;20177;-76
2021/06/16 09:36:55;;;;;;;;;;;;;;;29.16;44.26;100313.84;1761046;79;20220;-77
2021/06/16 09:39:24;;;;;;;;;;;;;;;29.19;44.27;100325.66;1760750;79;20172;-75
2021/06/16 09:42:11;;;;;;;;;;;;;;;29.20;44.19;100326.48;1760804;79;20198;-76
2021/06/16 09:44:54;;;;;;;;;;;;;;;29.17;44.23;100326.52;1762754;79;20219;-75
2021/06/16 09:47:22;;;;;;;;;;;;;;;29.17;44.40;100331.22;1763199;79;20125;-76
2021/06/16 09:49:50;;;;;;;;;;;;;;;29.16;44.09;100326.26;1761139;79;20499;-76
2021/06/16 09:52:34;;;;;;;;;;;;;;;29.15;44.29;100323.77;1757775;79;20216;-78
2021/06/16 09:55:04;;;;;;;;;;;;;;;29.17;44.53;100321.56;1760594;79;20174;-76
2021/06/16 09:57:30;;;;;;;;;;;;;;;29.17;44.50;100311.34;1760191;79;20181;-75
2021/06/16 10:00:00;;;;;;;;;;;;;;;29.18;44.47;100310.23;1761069;79;20182;-75
2021/06/16 10:02:29;;;;;;;;;;;;;;;29.22;44.40;100309.11;1758010;79;20173;-78
2021/06/16 10:04:58;;;;;;;;;;;;;;;29.20;44.19;100308.55;1754041;80;20410;-76
2021/06/16 10:07:27;;;;;;;;;;;;;;;29.14;44.29;100289.84;1746303;80;20163;-75
2021/06/16 10:10:02;;;;;;;;;;;;;;;29.11;44.37;100291.78;1742774;80;20165;-76
2021/06/16 10:12:33;;;;;;;;;;;;;;;29.07;44.21;100304.52;1743024;80;20287;-77
2021/06/16 10:15:03;;;;;;;;;;;;;;;29.03;44.18;100307.58;1744821;80;20186;-78
2021/06/16 10:17:29;;;;;;;;;;;;;;;28.98;44.51;100308.98;1744923;80;20209;-78
2021/06/16 10:19:56;;;;;;;;;;;;;;;28.98;44.69;100306.23;1767140;79;20201;-78
2021/06/16 10:22:45;;;;;;;;;;;;;;;28.96;44.32;100296.02;1767634;79;20639;-80
2021/06/16 10:25:11;;;;;;;;;;;;;;;28.93;43.92;100292.41;1760986;78;21041;-79
2021/06/16 10:27:46;;;;;;;;;;;;;;;28.93;43.87;100293.23;1764968;79;20168;-78
2021/06/16 10:30:13;;;;;;;;;;;;;;;28.84;43.19;100296.31;1768506;79;20194;-77
2021/06/16 10:32:47;;;;;;;;;;;;;;;28.75;42.42;100285.61;1733638;81;20179;-78
2021/06/16 10:35:25;;;;;;;;;;;;;;;28.65;42.62;100285.66;1766021;79;20159;-79
2021/06/16 10:37:51;;;;;;;;;;;;;;;28.50;43.08;100285.19;1790990;78;20174;-77
2021/06/16 10:40:25;;;;;;;;;;;;;;;28.35;43.15;100276.98;1720330;81;20259;-76
2021/06/16 10:43:05;;;;;;;;;;;;;;;28.24;43.32;100275.58;1744603;80;20197;-77
2021/06/16 10:45:34;;;;;;;;;;;;;;;28.16;44.11;100266.54;1746540;80;20170;-79
2021/06/16 10:48:06;;;;;;;;;;;;;;;28.12;45.26;100258.56;1743953;80;20222;-79
2021/06/16 10:50:50;;;;;;;;;;;;;;;28.07;45.44;100262.71;1769889;79;20867;-77
2021/06/16 10:53:20;;;;;;;;;;;;;;;28.04;45.18;100259.12;1760446;80;20147;-78
2021/06/16 10:55:57;;;;;;;;;;;;;;;28.06;45.24;100272.88;1763645;79;20216;-77
2021/06/16 10:58:35;;;;;;;;;;;;;;;28.14;44.53;100280.30;1736403;80;20162;-78
2021/06/16 11:01:17;;;;;;;;;;;;;;;28.18;44.54;100278.64;1761672;79;20200;-78
2021/06/16 11:03:55;;;;;;;;;;;;;;;28.22;43.94;100279.73;1763205;80;20177;-76
2021/06/16 11:06:36;;;;;;;;;;;;;;;28.25;43.03;100259.35;1765070;79;20158;-78
2021/06/16 11:09:07;;;;;;;;;;;;;;;28.24;42.04;100248.04;1740013;81;20173;-77
2021/06/16 11:11:53;;;;;;;;;;;;;;;28.25;41.97;100252.47;1757720;80;20184;-77
2021/06/16 11:14:43;;;;;;;;;;;;;;;28.27;42.23;100243.91;1763219;80;20205;-76
2021/06/16 11:17:10;;;;;;;;;;;;;;;28.28;43.02;100253.27;1761315;80;20196;-77
2021/06/16 11:19:39;;;;;;;;;;;;;;;28.37;44.05;100258.23;1758557;80;20192;-78
2021/06/16 11:22:18;;;;;;;;;;;;;;;28.38;44.24;100262.07;1760640;80;20206;-79
2021/06/16 11:25:26;;;;;;;;;;;;;;;28.40;44.19;100268.70;1736719;80;20133;-77
2021/06/16 11:27:56;;;;;;;;;;;;;;;28.43;44.34;100274.44;1687984;83;20160;-78
2021/06/16 11:30:34;;;;;;;;;;;;;;;28.48;43.89;100279.11;1661854;84;20189;-78
2021/06/16 11:33:17;;;;;;;;;;;;;;;28.45;44.08;100284.65;1721093;79;20198;-78
2021/06/16 11:35:55;;;;;;;;;;;;;;;28.51;43.80;100295.09;1763691;79;20187;-77
2021/06/16 11:38:32;;;;;;;;;;;;;;;28.54;43.83;100301.42;1763300;79;20200;-77
2021/06/16 11:41:17;;;;;;;;;;;;;;;28.53;43.75;100297.85;1765304;79;20397;-76
2021/06/16 11:43:56;;;;;;;;;;;;;;;28.49;44.24;100304.20;1762617;79;20221;-77
2021/06/16 11:46:35;;;;;;;;;;;;;;;28.44;44.51;100302.84;1767207;79;20140;-77
2021/06/16 11:49:17;;;;;;;;;;;;;;;28.41;44.54;100310.29;1762393;80;20205;-77
2021/06/16 11:51:54;;;;;;;;;;;;;;;28.37;44.61;100311.95;1760827;79;20165;-77
2021/06/16 11:54:27;;;;;;;;;;;;;;;28.34;44.80;100306.41;1765890;79;20163;-76
2021/06/16 11:57:02;;;;;;;;;;;;;;;28.32;44.92;100305.31;1772958;79;20199;-77
2021/06/16 11:59:43;;;;;;;;;;;;;;;28.31;44.96;100306.42;1762742;80;20216;-77
2021/06/16 12:02:14;;;;;;;;;;;;;;;28.26;45.07;100311.95;1763880;79;20147;-76
2021/06/16 12:04:48;;;;;;;;;;;;;;;28.29;45.01;100312.75;1758958;80;20146;-76
2021/06/16 12:07:26;;;;;;;;;;;;;;;28.24;45.20;100319.65;1765787;80;20167;-76
2021/06/16 12:09:54;;;;;;;;;;;;;;;28.21;45.34;100324.36;1748080;80;20254;-76
2021/06/16 12:12:21;;;;;;;;;;;;;;;28.15;45.29;100321.32;1740652;80;20212;-76
2021/06/16 12:15:04;;;;;;;;;;;;;;;28.10;44.78;100317.76;1770488;79;20164;-76
2021/06/16 12:17:30;;;;;;;;;;;;;;;28.06;44.59;100313.35;1733195;81;20206;-76
2021/06/16 12:19:57;;;;;;;;;;;;;;;28.03;44.77;100313.92;1744110;81;20196;-76
2021/06/16 12:22:24;;;;;;;;;;;;;;;28.04;44.32;100321.08;1724286;80;20160;-77
2021/06/16 12:24:50;;;;;;;;;;;;;;;28.02;44.17;100312.25;1719779;79;20171;-78
2021/06/16 12:27:17;;;;;;;;;;;;;;;28.02;44.06;100292.45;1755299;80;20149;-77
2021/06/16 12:29:53;;;;;;;;;;;;;;;28.04;43.65;100293.55;1754926;80;20150;-77
2021/06/16 12:32:44;;;;;;;;;;;;;;;28.05;43.56;100287.75;1756982;80;20169;-76
2021/06/16 12:35:17;;;;;;;;;;;;;;;28.08;43.68;100280.05;1739428;81;20470;-77
2021/06/16 12:37:49;;;;;;;;;;;;;;;28.13;43.79;100273.98;1761091;80;20176;-77
2021/06/16 12:40:16;;;;;;;;;;;;;;;28.20;43.79;100266.78;1757600;80;20156;-78
2021/06/16 12:42:46;;;;;;;;;;;;;;;28.22;43.93;100267.34;1766460;80;20219;-78
2021/06/16 12:45:29;;;;;;;;;;;;;;;28.28;43.90;100262.08;1768294;79;20193;-77